Time;durP1;ratioP1;P1;durP2;ratioP2;P2;SDS_P1;SDS_P2;PMS_P1;PMS_P2;Temp;Humidity;BMP_temperature;BMP_pressure;BME280_temperature;BME280_humidity;BME280_pressure;Samples;Min_cycle;Max_cycle;Signal;HPM_P1;HPM_P2
2022/04/03 00:02:15;;;;;;;6.38;3.00;;;0.10;99.90;;;;;;12407724;28;20188;-82
2022/04/03 00:08:17;;;;;;;8.40;3.30;;;0.00;99.90;;;;;;12423058;28;20053;-82
2022/04/03 00:14:19;;;;;;;5.50;2.83;;;0.10;99.90;;;;;;12407002;28;20046;-82
2022/04/03 00:20:21;;;;;;;6.00;3.20;;;-0.10;99.90;;;;;;12408834;28;20748;-81
2022/04/03 00:26:23;;;;;;;5.20;3.58;;;-0.30;99.90;;;;;;12429033;28;20092;-82
2022/04/03 00:32:25;;;;;;;6.93;2.95;;;-0.30;99.90;;;;;;12421095;28;20049;-82
2022/04/03 00:38:27;;;;;;;6.78;3.40;;;-0.40;99.90;;;;;;12431467;28;20053;-82
2022/04/03 00:44:30;;;;;;;6.00;2.95;;;-0.50;99.90;;;;;;12431954;28;20096;-82
2022/04/03 00:50:32;;;;;;;4.83;2.60;;;-0.30;99.90;;;;;;12414429;28;20099;-82
2022/04/03 00:56:34;;;;;;;5.03;3.00;;;-0.20;99.90;;;;;;12438018;28;20050;-82
2022/04/03 01:02:36;;;;;;;6.95;3.00;;;-0.30;99.90;;;;;;12437432;28;20054;-82
2022/04/03 01:08:38;;;;;;;5.40;2.80;;;-0.30;99.90;;;;;;12432365;28;20057;-83
2022/04/03 01:14:42;;;;;;;4.50;2.80;;;-0.50;99.90;;;;;;12448783;28;20049;-83
2022/04/03 01:20:44;;;;;;;5.70;3.00;;;-0.40;99.90;;;;;;12434846;28;20041;-83
2022/04/03 01:26:46;;;;;;;6.05;3.30;;;-0.70;99.90;;;;;;12413930;28;20123;-83
2022/04/03 01:32:48;;;;;;;7.57;3.45;;;-0.90;99.90;;;;;;12410906;28;20061;-83
2022/04/03 01:38:50;;;;;;;5.75;3.17;;;-0.80;99.90;;;;;;12431449;28;20049;-83
2022/04/03 01:44:52;;;;;;;5.85;3.55;;;-1.00;99.90;;;;;;12424722;28;21067;-83
2022/04/03 01:50:53;;;;;;;5.53;3.47;;;-0.90;99.90;;;;;;12407507;28;20093;-83
2022/04/03 01:56:55;;;;;;;6.35;3.75;;;-0.70;99.90;;;;;;12417576;28;20049;-82
2022/04/03 02:02:58;;;;;;;6.65;3.38;;;-0.80;99.90;;;;;;12413154;28;20835;-81
2022/04/03 02:09:01;;;;;;;5.25;2.92;;;-0.60;99.90;;;;;;12434785;28;20536;-83
2022/04/03 02:15:05;;;;;;;6.72;3.22;;;-0.50;99.90;;;;;;12428270;28;20052;-81
2022/04/03 02:21:07;;;;;;;5.10;2.97;;;-0.50;99.90;;;;;;12432843;28;20550;-82
2022/04/03 02:27:08;;;;;;;7.13;3.40;;;-0.50;99.90;;;;;;12416914;28;20050;-83
2022/04/03 02:33:13;;;;;;;6.00;3.20;;;-0.60;99.90;;;;;;12418569;28;20038;-83
2022/04/03 02:39:15;;;;;;;7.22;3.38;;;-0.70;99.90;;;;;;12425290;28;20050;-83
2022/04/03 02:45:16;;;;;;;9.68;3.00;;;-0.70;99.90;;;;;;12411493;28;20497;-81
2022/04/03 02:51:19;;;;;;;6.53;3.35;;;-0.50;99.90;;;;;;12413401;28;20046;-83
2022/04/03 02:57:21;;;;;;;7.75;3.60;;;-0.30;99.90;;;;;;12411318;28;20060;-83
2022/04/03 03:03:23;;;;;;;5.88;3.75;;;-0.50;99.90;;;;;;12424443;28;20123;-80
2022/04/03 03:09:25;;;;;;;6.78;3.35;;;-0.60;99.90;;;;;;12413637;28;20104;-81
2022/04/03 03:15:27;;;;;;;7.50;4.10;;;-0.40;99.90;;;;;;12410965;28;20045;-83
2022/04/03 03:21:28;;;;;;;6.22;4.18;;;-0.50;99.90;;;;;;12426739;28;20474;-81
2022/04/03 03:27:31;;;;;;;7.82;4.70;;;-0.50;99.90;;;;;;12412775;28;20057;-81
2022/04/03 03:33:33;;;;;;;7.60;4.53;;;-0.50;99.90;;;;;;12429670;28;20046;-83
2022/04/03 03:39:35;;;;;;;10.75;4.30;;;-0.50;99.90;;;;;;12433038;28;20057;-83
2022/04/03 03:45:37;;;;;;;7.03;4.20;;;-0.40;99.90;;;;;;12437320;28;20169;-81
2022/04/03 03:51:39;;;;;;;6.28;3.92;;;-0.40;99.90;;;;;;12418541;28;20077;-83
2022/04/03 03:57:44;;;;;;;6.85;3.85;;;-0.40;99.90;;;;;;12407644;28;20057;-81
2022/04/03 04:03:46;;;;;;;7.28;3.70;;;-0.30;99.90;;;;;;12429454;28;20176;-81
2022/04/03 04:09:48;;;;;;;6.68;3.13;;;-0.30;99.90;;;;;;12435353;28;20068;-82
2022/04/03 04:15:50;;;;;;;6.55;3.63;;;-0.30;99.90;;;;;;12413913;28;20100;-83
2022/04/03 04:21:52;;;;;;;7.75;3.70;;;-0.20;99.90;;;;;;12415946;28;20501;-81
2022/04/03 04:27:54;;;;;;;7.75;3.80;;;-0.10;99.90;;;;;;12422579;28;20049;-80
2022/04/03 04:33:56;;;;;;;7.32;3.60;;;0.00;99.90;;;;;;12410455;28;20075;-83
2022/04/03 04:39:58;;;;;;;5.95;4.00;;;0.10;99.90;;;;;;12427052;28;20772;-83
2022/04/03 04:46:00;;;;;;;9.20;4.13;;;0.10;99.90;;;;;;12432068;28;20110;-81
2022/04/03 04:52:03;;;;;;;7.93;4.30;;;-0.10;99.90;;;;;;12431610;28;20054;-84
2022/04/03 04:58:05;;;;;;;10.35;4.28;;;-0.20;99.90;;;;;;12424887;28;20050;-84
2022/04/03 05:04:06;;;;;;;7.10;4.07;;;-0.40;99.90;;;;;;12412965;28;20057;-84
2022/04/03 05:10:09;;;;;;;6.50;4.13;;;-0.30;99.90;;;;;;12445460;28;20188;-81
2022/04/03 05:16:11;;;;;;;8.25;4.63;;;-0.50;99.90;;;;;;12440098;28;20049;-84
2022/04/03 05:22:13;;;;;;;7.80;4.78;;;-0.60;99.90;;;;;;12438122;28;20049;-84
2022/04/03 05:28:15;;;;;;;9.88;5.30;;;-0.10;99.90;;;;;;12426461;28;20058;-81
2022/04/03 05:34:17;;;;;;;9.50;4.78;;;0.20;99.90;;;;;;12430010;28;20100;-83
2022/04/03 05:40:19;;;;;;;8.02;4.47;;;0.20;99.90;;;;;;12426707;28;20052;-81
2022/04/03 05:46:22;;;;;;;7.65;4.30;;;0.00;99.90;;;;;;12431288;28;20457;-81
2022/04/03 05:52:24;;;;;;;8.02;4.53;;;0.00;99.90;;;;;;12429862;28;20108;-81
2022/04/03 05:58:26;;;;;;;7.68;4.72;;;0.00;99.90;;;;;;12424219;28;20104;-83
2022/04/03 06:04:28;;;;;;;7.65;4.40;;;1.20;99.90;;;;;;12416895;28;20049;-81
2022/04/03 06:10:30;;;;;;;9.85;5.22;;;1.20;99.90;;;;;;12424020;28;20461;-82
2022/04/03 06:16:32;;;;;;;7.43;4.40;;;1.00;99.90;;;;;;12430648;28;20045;-84
2022/04/03 06:22:34;;;;;;;8.48;4.45;;;0.90;99.90;;;;;;12430928;28;20409;-83
2022/04/03 06:28:36;;;;;;;7.55;4.65;;;0.90;99.90;;;;;;12409044;28;20555;-83
2022/04/03 06:34:38;;;;;;;8.52;4.25;;;0.90;99.90;;;;;;12426392;28;20046;-83
2022/04/03 06:40:58;;;;;;;7.20;4.55;;;1.30;99.90;;;;;;12417401;28;20069;-83
2022/04/03 06:47:00;;;;;;;6.93;4.55;;;1.70;99.90;;;;;;12432063;28;20511;-82
2022/04/03 06:53:04;;;;;;;6.60;4.30;;;1.90;99.90;;;;;;12439001;28;20080;-83
2022/04/03 06:59:06;;;;;;;8.32;3.80;;;1.80;99.90;;;;;;12435245;28;20494;-83
2022/04/03 07:05:09;;;;;;;5.70;3.50;;;2.00;99.90;;;;;;12401148;28;20062;-81
2022/04/03 07:11:11;;;;;;;6.60;3.43;;;1.80;99.90;;;;;;12420627;28;20095;-81
2022/04/03 07:17:13;;;;;;;6.65;3.42;;;1.70;99.90;;;;;;12420183;28;20045;-81
2022/04/03 07:23:15;;;;;;;6.50;3.35;;;2.00;99.90;;;;;;12415183;28;20058;-81
2022/04/03 07:29:17;;;;;;;7.20;2.70;;;2.50;99.90;;;;;;12423204;28;20053;-82
2022/04/03 07:35:19;;;;;;;9.63;3.05;;;2.60;99.90;;;;;;12422955;28;20080;-82
2022/04/03 07:41:21;;;;;;;5.22;2.20;;;2.50;99.90;;;;;;12409801;28;20049;-83
2022/04/03 07:47:23;;;;;;;4.20;2.40;;;2.40;99.90;;;;;;12411591;28;20046;-82
2022/04/03 07:53:25;;;;;;;4.88;2.20;;;2.70;99.90;;;;;;12416947;28;20513;-84
2022/04/03 07:59:26;;;;;;;5.63;2.33;;;3.00;99.90;;;;;;12413639;28;20057;-84
2022/04/03 08:05:28;;;;;;;5.32;1.70;;;3.00;99.90;;;;;;12408653;28;20061;-85
2022/04/03 08:11:30;;;;;;;7.00;1.58;;;3.30;99.90;;;;;;12408486;28;20082;-81
2022/04/03 08:17:32;;;;;;;2.97;1.50;;;3.30;99.90;;;;;;12423347;28;20073;-81
2022/04/03 08:23:34;;;;;;;4.05;1.52;;;3.60;99.90;;;;;;12413900;28;20762;-84
2022/04/03 08:29:36;;;;;;;3.35;1.40;;;3.70;99.90;;;;;;12384559;28;20061;-83
2022/04/03 08:35:40;;;;;;;4.35;1.42;;;4.00;99.90;;;;;;12379157;28;20046;-80
2022/04/03 08:41:42;;;;;;;6.20;1.73;;;4.30;99.90;;;;;;12404293;28;20060;-83
2022/04/03 08:47:50;;;;;;;5.70;1.50;;;4.40;99.90;;;;;;12396692;28;20042;-82
2022/04/03 08:53:53;;;;;;;3.75;1.33;;;4.70;99.90;;;;;;12376805;28;20813;-84
2022/04/03 08:59:56;;;;;;;5.90;1.50;;;4.80;99.90;;;;;;12411226;28;20050;-84
2022/04/03 09:06:15;;;;;;;3.83;1.25;;;4.50;99.90;;;;;;12402932;28;20538;-81
2022/04/03 09:12:17;;;;;;;4.78;1.00;;;4.60;99.90;;;;;;12405310;28;20054;-81
2022/04/03 09:18:19;;;;;;;3.90;1.10;;;5.00;99.90;;;;;;12408000;28;20049;-84
2022/04/03 09:24:21;;;;;;;2.60;0.70;;;5.30;99.90;;;;;;12397974;28;20989;-83
2022/04/03 09:30:30;;;;;;;4.50;1.20;;;5.00;99.90;;;;;;12406074;28;20088;-83
2022/04/03 09:36:33;;;;;;;1.95;0.85;;;5.10;99.90;;;;;;12408408;28;20076;-82
2022/04/03 09:42:35;;;;;;;4.38;1.42;;;5.00;99.90;;;;;;12397664;28;20111;-80
2022/04/03 09:48:42;;;;;;;2.80;1.08;;;4.90;99.90;;;;;;12389814;28;20103;-83
2022/04/03 09:54:45;;;;;;;4.13;1.40;;;5.00;99.90;;;;;;12409162;28;20117;-83
2022/04/03 10:00:49;;;;;;;3.88;1.30;;;5.10;99.90;;;;;;12424825;28;20152;-80
2022/04/03 10:06:51;;;;;;;2.95;0.93;;;5.20;99.90;;;;;;12417695;28;20054;-82
2022/04/03 10:12:55;;;;;;;2.00;0.93;;;5.40;99.90;;;;;;12428125;28;20110;-80
2022/04/03 10:18:57;;;;;;;1.97;0.90;;;5.30;99.90;;;;;;12423042;28;20054;-81
2022/04/03 10:25:04;;;;;;;3.35;0.80;;;5.20;99.90;;;;;;12408845;28;20049;-80
2022/04/03 10:31:07;;;;;;;3.72;0.90;;;5.20;99.90;;;;;;12416593;28;20061;-80
2022/04/03 10:37:22;;;;;;;2.53;1.10;;;5.10;99.90;;;;;;12427847;28;20053;-83
2022/04/03 10:43:29;;;;;;;3.58;1.10;;;4.90;99.90;;;;;;12415149;28;20108;-82
2022/04/03 10:49:38;;;;;;;2.50;1.00;;;4.90;99.90;;;;;;12417641;28;20085;-83
2022/04/03 10:55:40;;;;;;;5.57;1.10;;;4.90;99.90;;;;;;12410870;28;20100;-82
2022/04/03 11:01:44;;;;;;;4.60;0.90;;;5.00;99.90;;;;;;12412655;28;20091;-82
2022/04/03 11:07:46;;;;;;;3.47;0.97;;;5.30;99.90;;;;;;12417962;28;20042;-81
2022/04/03 11:13:48;;;;;;;2.67;0.95;;;5.50;99.90;;;;;;12432091;28;20080;-80
2022/04/03 11:19:57;;;;;;;3.63;1.30;;;5.40;99.90;;;;;;12409539;28;20618;-80
2022/04/03 11:26:00;;;;;;;5.03;1.00;;;5.70;99.90;;;;;;12409285;28;20053;-82
2022/04/03 11:32:07;;;;;;;2.85;0.90;;;5.80;99.90;;;;;;12398469;28;20052;-80
2022/04/03 11:38:10;;;;;;;4.93;1.27;;;5.10;99.90;;;;;;12407452;28;20046;-82
2022/04/03 11:44:15;;;;;;;6.10;1.30;;;4.90;99.90;;;;;;12426053;28;20051;-82
2022/04/03 11:50:20;;;;;;;3.72;1.08;;;5.40;99.90;;;;;;12412142;28;20053;-82
2022/04/03 11:56:22;;;;;;;4.80;1.15;;;5.60;99.90;;;;;;12410149;28;20572;-82
2022/04/03 12:02:24;;;;;;;4.60;1.20;;;5.30;99.90;;;;;;12400176;28;20104;-80
2022/04/03 12:08:37;;;;;;;2.65;1.13;;;5.50;99.90;;;;;;12421999;28;20144;-81
2022/04/03 12:14:42;;;;;;;5.13;1.30;;;5.70;99.90;;;;;;12424800;28;20042;-83
2022/04/03 12:20:44;;;;;;;4.60;1.00;;;6.60;99.90;;;;;;12406112;28;20050;-83
2022/04/03 12:27:07;;;;;;;2.47;0.85;;;7.20;99.90;;;;;;12450774;28;20144;-82
2022/04/03 12:33:09;;;;;;;3.13;1.00;;;7.40;99.90;;;;;;12436777;28;20989;-81
2022/04/03 12:39:32;;;;;;;2.55;1.10;;;7.30;99.90;;;;;;12425025;28;20466;-81
2022/04/03 12:45:35;;;;;;;3.28;0.80;;;6.60;99.90;;;;;;12435060;28;20100;-82
2022/04/03 12:51:47;;;;;;;2.92;1.08;;;6.30;99.90;;;;;;12422165;28;20053;-80
2022/04/03 13:04:30;;;;;;;2.75;1.00;;;6.00;99.90;;;;;;12431945;28;20140;-80
2022/04/03 13:10:31;;;;;;;1.88;0.90;;;6.00;99.90;;;;;;12412183;28;20110;-82
2022/04/03 13:16:33;;;;;;;3.63;0.98;;;6.10;99.90;;;;;;12406760;28;20487;-81
2022/04/03 13:22:36;;;;;;;3.95;1.08;;;6.50;99.90;;;;;;12418458;28;20046;-81
2022/04/03 13:28:37;;;;;;;2.40;0.90;;;6.60;99.90;;;;;;12437386;28;20387;-82
2022/04/03 13:34:39;;;;;;;1.83;0.88;;;6.50;99.90;;;;;;12438965;28;20213;-82
2022/04/03 13:40:42;;;;;;;3.35;0.90;;;6.50;99.90;;;;;;12451154;28;20065;-82
2022/04/03 13:46:43;;;;;;;2.88;0.70;;;7.10;99.90;;;;;;12432472;28;20072;-83
2022/04/03 13:52:45;;;;;;;2.40;0.70;;;7.80;99.90;;;;;;12414496;28;20569;-80
2022/04/03 13:58:48;;;;;;;4.28;1.00;;;7.00;99.90;;;;;;12417108;28;20049;-82
2022/04/03 14:04:50;;;;;;;3.72;1.00;;;6.50;99.90;;;;;;12416528;28;20050;-80
2022/04/03 14:10:53;;;;;;;3.08;1.38;;;6.20;99.90;;;;;;12418866;28;20056;-82
2022/04/03 14:16:56;;;;;;;4.32;1.10;;;6.00;99.90;;;;;;12429108;28;20513;-81
2022/04/03 14:22:58;;;;;;;4.43;1.20;;;6.10;99.90;;;;;;12432298;28;20037;-80
2022/04/03 14:29:01;;;;;;;3.83;1.10;;;6.00;99.90;;;;;;12419300;28;20057;-82
2022/04/03 14:35:02;;;;;;;1.98;0.95;;;5.30;99.90;;;;;;12413162;28;20698;-79
2022/04/03 14:41:06;;;;;;;3.83;1.13;;;4.60;99.90;;;;;;12425973;28;20058;-80
2022/04/03 14:47:08;;;;;;;6.88;1.30;;;4.50;99.90;;;;;;12414668;28;20062;-82
2022/04/03 14:53:11;;;;;;;3.75;1.38;;;4.80;99.90;;;;;;12421041;28;20042;-82
2022/04/03 14:59:13;;;;;;;5.47;1.33;;;5.10;99.90;;;;;;12424382;28;20556;-82
2022/04/03 15:05:15;;;;;;;4.32;1.30;;;5.30;99.90;;;;;;12437732;28;20065;-82
2022/04/03 15:17:37;;;;;;;3.22;1.13;;;6.20;99.90;;;;;;6161351;23;20053;-39
2022/04/03 15:23:40;;;;;;;4.93;1.35;;;6.20;99.90;;;;;;12439884;28;20496;-39
2022/04/03 15:29:49;;;;;;;4.43;1.17;;;6.70;99.90;;;;;;12467585;28;20151;-36
2022/04/03 15:35:53;;;;;;;4.13;1.13;;;7.50;99.90;;;;;;12462705;28;20057;-35
2022/04/03 15:41:55;;;;;;;6.32;1.08;;;7.30;99.90;;;;;;12474650;28;20078;-39
2022/04/03 15:48:01;;;;;;;2.58;1.05;;;7.20;99.90;;;;;;12474688;28;20056;-39
2022/04/03 15:54:04;;;;;;;3.25;1.00;;;7.70;99.90;;;;;;12471199;28;20049;-40
2022/04/03 16:00:08;;;;;;;2.47;0.73;;;7.60;99.90;;;;;;12484241;28;20048;-35
2022/04/03 16:06:11;;;;;;;2.05;0.80;;;7.60;99.90;;;;;;12501655;28;20061;-36
2022/04/03 16:12:13;;;;;;;1.55;0.80;;;7.60;99.90;;;;;;12491432;28;20508;-39
2022/04/03 16:18:15;;;;;;;2.47;0.93;;;7.60;99.90;;;;;;12444372;28;20061;-40
2022/04/03 16:24:17;;;;;;;2.63;0.82;;;7.60;99.90;;;;;;12433777;28;20128;-36
2022/04/03 16:30:21;;;;;;;0.63;0.50;;;7.60;99.90;;;;;;12433858;28;20133;-39
2022/04/03 16:36:28;;;;;;;1.80;0.97;;;7.30;99.90;;;;;;12444890;28;20139;-39
2022/04/03 16:42:30;;;;;;;2.00;0.90;;;7.30;99.90;;;;;;12441673;28;20045;-39
2022/04/03 16:48:34;;;;;;;3.22;0.90;;;7.20;99.90;;;;;;12439815;28;20568;-39
2022/04/03 16:54:37;;;;;;;4.05;1.30;;;6.80;99.90;;;;;;12435920;28;20058;-40
2022/04/03 17:00:40;;;;;;;2.33;1.27;;;6.20;99.90;;;;;;12433091;28;20050;-39
2022/04/03 17:06:42;;;;;;;3.22;1.45;;;5.90;99.90;;;;;;12433894;28;20088;-38
2022/04/03 17:12:43;;;;;;;2.90;1.20;;;5.70;99.90;;;;;;12432769;28;20138;-39
2022/04/03 17:18:46;;;;;;;6.05;1.17;;;5.60;99.90;;;;;;12436543;28;20050;-39
2022/04/03 17:24:48;;;;;;;5.07;1.20;;;5.60;99.90;;;;;;12430937;28;20081;-40
2022/04/03 17:30:51;;;;;;;2.63;1.40;;;5.60;99.90;;;;;;12434693;28;20089;-36
2022/04/03 17:36:52;;;;;;;3.65;1.20;;;5.60;99.90;;;;;;12433099;28;20056;-39
2022/04/03 17:42:55;;;;;;;5.70;3.20;;;5.40;99.90;;;;;;12429770;28;20129;-40
2022/04/03 17:48:58;;;;;;;3.58;1.27;;;5.30;99.90;;;;;;12410221;28;20049;-36
2022/04/03 17:55:00;;;;;;;4.82;1.00;;;5.10;99.90;;;;;;12426928;28;20045;-36
2022/04/03 18:01:03;;;;;;;2.60;1.20;;;4.80;99.90;;;;;;12427547;28;20386;-35
2022/04/03 18:07:07;;;;;;;2.25;1.40;;;4.50;99.90;;;;;;12425968;28;20064;-36
2022/04/03 18:13:09;;;;;;;5.05;1.85;;;4.30;99.90;;;;;;12411654;28;20465;-39
2022/04/03 18:19:11;;;;;;;3.50;1.67;;;4.20;99.90;;;;;;12405650;28;20050;-37
2022/04/03 18:25:15;;;;;;;3.25;1.90;;;4.20;99.90;;;;;;12422556;28;20089;-37
2022/04/03 18:31:17;;;;;;;12.93;4.68;;;4.30;99.90;;;;;;12423268;28;20050;-42
2022/04/03 18:37:19;;;;;;;3.53;1.90;;;4.20;99.90;;;;;;12427408;28;20041;-36
2022/04/03 18:43:21;;;;;;;2.92;1.60;;;4.20;99.90;;;;;;12429532;28;20438;-36
2022/04/03 18:49:23;;;;;;;3.00;1.70;;;4.00;99.90;;;;;;12431247;28;20057;-40
2022/04/03 18:55:26;;;;;;;4.63;1.98;;;3.70;99.90;;;;;;12415531;28;20041;-36
2022/04/03 19:01:28;;;;;;;3.00;1.50;;;3.50;99.90;;;;;;12430764;28;20099;-39
2022/04/03 19:07:29;;;;;;;3.42;2.70;;;3.40;99.90;;;;;;12428242;28;20092;-36
2022/04/03 19:13:32;;;;;;;3.80;1.80;;;3.40;99.90;;;;;;12430504;28;20499;-39
2022/04/03 19:19:34;;;;;;;3.03;1.80;;;3.50;99.90;;;;;;12429593;28;20058;-42
2022/04/03 19:25:36;;;;;;;3.00;1.73;;;3.60;99.90;;;;;;12423038;28;20061;-39
2022/04/03 19:31:38;;;;;;;6.20;1.70;;;3.80;99.90;;;;;;12424477;28;20144;-36
2022/04/03 19:37:44;;;;;;;5.97;1.50;;;3.90;99.90;;;;;;12427581;28;20050;-39
2022/04/03 19:43:47;;;;;;;3.38;1.70;;;4.10;99.90;;;;;;12424882;28;20053;-39
2022/04/03 19:49:50;;;;;;;4.13;1.42;;;4.10;99.90;;;;;;12409109;28;20418;-40
2022/04/03 19:55:52;;;;;;;3.22;1.77;;;4.20;99.90;;;;;;12407100;28;20057;-40
2022/04/03 20:01:54;;;;;;;6.00;1.52;;;4.10;99.90;;;;;;12430487;28;20050;-36
2022/04/03 20:07:57;;;;;;;3.25;1.65;;;3.90;99.90;;;;;;12434737;28;20060;-39
2022/04/03 20:14:00;;;;;;;3.38;2.08;;;3.70;99.90;;;;;;12432071;28;20046;-36
2022/04/03 20:20:08;;;;;;;4.68;1.67;;;3.40;99.90;;;;;;12427040;28;20057;-36
2022/04/03 20:26:10;;;;;;;3.40;1.80;;;3.20;99.90;;;;;;12431430;28;20054;-35
2022/04/03 20:32:12;;;;;;;3.67;1.80;;;3.10;99.90;;;;;;12431136;28;20068;-39
2022/04/03 20:38:14;;;;;;;5.30;1.63;;;3.00;99.90;;;;;;12434419;28;20088;-38
2022/04/03 20:44:18;;;;;;;3.78;1.80;;;2.90;99.90;;;;;;12430056;28;20076;-35
2022/04/03 20:50:20;;;;;;;4.75;1.98;;;2.80;99.90;;;;;;12436088;28;20060;-39
2022/04/03 20:56:22;;;;;;;7.43;1.92;;;2.80;99.90;;;;;;12433258;28;20053;-40
2022/04/03 21:02:24;;;;;;;5.22;1.75;;;2.70;99.90;;;;;;12435049;28;20142;-36
2022/04/03 21:08:26;;;;;;;3.38;2.00;;;2.70;99.90;;;;;;12440560;28;20127;-39
2022/04/03 21:14:29;;;;;;;3.13;1.80;;;2.70;99.90;;;;;;12435099;28;20126;-39
2022/04/03 21:20:31;;;;;;;3.10;2.00;;;2.60;99.90;;;;;;12436558;28;20045;-36
2022/04/03 21:26:33;;;;;;;3.15;1.80;;;2.60;99.90;;;;;;12443606;28;20050;-40
2022/04/03 21:32:35;;;;;;;3.92;2.05;;;2.60;99.90;;;;;;12435904;28;20053;-36
2022/04/03 21:38:37;;;;;;;4.07;2.40;;;2.60;99.90;;;;;;12434599;28;20072;-36
2022/04/03 21:44:39;;;;;;;3.20;2.10;;;2.60;99.90;;;;;;12429882;28;20049;-39
2022/04/03 21:50:41;;;;;;;3.35;2.13;;;2.60;99.90;;;;;;12435774;28;20122;-40
2022/04/03 21:56:43;;;;;;;6.90;2.47;;;2.50;99.90;;;;;;12429435;28;20107;-37
2022/04/03 22:02:45;;;;;;;6.45;2.50;;;2.60;99.90;;;;;;12431681;28;20111;-36
2022/04/03 22:08:48;;;;;;;4.28;3.10;;;2.70;99.90;;;;;;12433130;28;20055;-36
2022/04/03 22:14:50;;;;;;;5.28;2.95;;;2.70;99.90;;;;;;12437114;28;20144;-36
2022/04/03 22:20:52;;;;;;;5.97;3.83;;;2.60;99.90;;;;;;12435257;28;20108;-37
2022/04/03 22:26:54;;;;;;;5.97;2.75;;;2.50;99.90;;;;;;12423405;28;20052;-40
2022/04/03 22:32:56;;;;;;;5.88;3.35;;;2.40;99.90;;;;;;12431948;28;20053;-36
2022/04/03 22:38:58;;;;;;;5.00;3.08;;;2.40;99.90;;;;;;12437727;28;20115;-41
2022/04/03 22:45:00;;;;;;;5.40;3.08;;;2.30;99.90;;;;;;12435999;28;20057;-36
2022/04/03 22:51:02;;;;;;;5.80;3.05;;;2.30;99.90;;;;;;12433249;28;20501;-36
2022/04/03 22:57:04;;;;;;;4.63;2.97;;;2.30;99.90;;;;;;12432810;28;20157;-39
2022/04/03 23:03:06;;;;;;;5.10;3.22;;;2.30;99.90;;;;;;12430118;28;20052;-42
2022/04/03 23:09:08;;;;;;;4.30;2.78;;;2.30;99.90;;;;;;12435174;28;20144;-39
2022/04/03 23:15:10;;;;;;;5.80;2.92;;;2.30;99.90;;;;;;12428863;28;20464;-40
2022/04/03 23:21:12;;;;;;;5.40;3.70;;;2.30;99.90;;;;;;12438619;28;20493;-37
2022/04/03 23:27:14;;;;;;;8.35;3.47;;;2.20;99.90;;;;;;12431771;28;20054;-36
2022/04/03 23:33:16;;;;;;;5.68;3.47;;;2.30;99.90;;;;;;12433293;28;20054;-37
2022/04/03 23:39:19;;;;;;;6.72;3.50;;;2.20;99.90;;;;;;12431885;28;20050;-36
2022/04/03 23:45:21;;;;;;;4.80;2.80;;;2.20;99.90;;;;;;12428592;28;20136;-36
2022/04/03 23:51:23;;;;;;;7.43;3.38;;;2.20;99.90;;;;;;12425736;28;20046;-39
2022/04/03 23:57:25;;;;;;;5.97;3.33;;;2.20;99.90;;;;;;12431635;28;20053;-40
